Burgtor — V2OR7 — position and weather

sailwx.info

Track history (hours):
 
Tides and Currents Weather Stations Pressure Air Temp Water Temp Dewpoint Dewpoint Depression Visibility Wind Speed Wind Dir Waves Ship Positions

Burgtor

Last reported at 2014-Sep-16 19:33 UTC. Time now 2014-Sep-21 04:03 UTC.
Position N 43°40' W 005°21'.

Length 87 m; draft 3.8 m.

Type: Cargo ship. MMSI: 304665000.

Date/timePositionNaut miles runAvg speedWind from/ knotsBaromVisibWave heightAir tempDewpointWater temp
2014-Sep-16 19:33N 43°40' W 005°21'1210.2
2014-Sep-16 18:23N 43°41' W 005°37'  
2014-Sep-10 12:21N 50°36' E 000°17'7 9.1
2014-Sep-10 11:33N 50°38' E 000°28'8 8.1
2014-Sep-10 10:33N 50°41' E 000°40'8 8.2
2014-Sep-10 09:33N 50°46' E 000°50'2610.8
2014-Sep-10 07:09N 51°02' E 001°23'712.5
2014-Sep-10 06:33N 51°07' E 001°32'1111.1
2014-Sep-10 05:33N 51°17' E 001°39'9 9.3
2014-Sep-10 04:33N 51°26' E 001°44'8 8.1
2014-Sep-10 03:33N 51°34' E 001°44'8 7.6
2014-Sep-10 02:33N 51°41' E 001°44'8 7.6
2014-Sep-10 01:33N 51°49' E 001°43'8 8.3
2014-Sep-10 00:33N 51°57' E 001°44'9 9.1
2014-Sep-09 23:33N 52°06' E 001°46'1110.6
2014-Sep-09 22:32N 52°17' E 001°49'1111.4
2014-Sep-09 21:33N 52°28' E 001°51'1212.3
2014-Sep-09 20:33N 52°40' E 001°55'1211.6
2014-Sep-09 19:33N 52°50' E 001°45'1212.2
2014-Sep-09 18:33N 52°59' E 001°32'1110.7
2014-Sep-09 17:33N 53°08' E 001°23'1110.5
2014-Sep-09 16:32N 53°17' E 001°14'33 9.8
2014-Sep-09 13:07N 53°45' E 000°42'5 8.2
2014-Sep-09 12:32N 53°48' E 000°37'10 7.7
2014-Sep-09 11:13N 53°55' E 000°24'5 7.5
2014-Sep-09 10:33N 53°58' E 000°17'7 7.4
2014-Sep-09 09:33N 54°03' E 000°07'7 6.8
2014-Sep-09 08:33N 54°08' W 000°01'7 7.0
2014-Sep-09 07:33N 54°14' W 000°07'9 8.7
2014-Sep-09 06:33N 54°22' W 000°13'10 9.9
2014-Sep-09 05:33N 54°31' W 000°20'1010.4
2014-Sep-09 04:33N 54°40' W 000°28'1110.5
2014-Sep-09 03:33N 54°50' W 000°37'1210.5
2014-Sep-09 02:27N 54°60' W 000°46'1010.5
2014-Sep-09 01:32N 55°08' W 000°55'62 8.7
2014-Sep-08 18:21N 55°56' W 002°04'7 9.0
2014-Sep-08 17:33N 55°60' W 002°16'10 9.5
2014-Sep-08 16:33N 56°04' W 002°31'10 9.7
2014-Sep-08 15:33N 56°07' W 002°48'1010.0
2014-Sep-08 14:33N 56°03' W 003°04'9 9.3
2014-Sep-08 13:33N 56°01' W 003°21'2 1.7
2014-Sep-08 12:33N 56°01' W 003°24'0 0.0
2014-Sep-08 11:33N 56°01' W 003°24'0 0.0
2014-Sep-08 10:33N 56°01' W 003°24'0 0.0
2014-Sep-08 09:33N 56°01' W 003°24'0 0.0
2014-Sep-08 08:33N 56°01' W 003°24'0 0.0
2014-Sep-08 07:33N 56°01' W 003°24'0 0.0
2014-Sep-08 06:33N 56°01' W 003°24'0 0.0
2014-Sep-08 05:32N 56°01' W 003°24'0 0.0
2014-Sep-08 04:32N 56°01' W 003°24'0 0.0
2014-Sep-08 03:32N 56°01' W 003°24'0 0.0
2014-Sep-08 02:32N 56°01' W 003°24'0 0.0
2014-Sep-08 01:32N 56°01' W 003°24'0 0.0
2014-Sep-08 00:32N 56°01' W 003°24'0 0.0
2014-Sep-07 23:32N 56°01' W 003°24'0 0.0
2014-Sep-07 21:32N 56°01' W 003°24'0 0.0
2014-Sep-07 20:32N 56°01' W 003°24'0 0.0
2014-Sep-07 19:32N 56°01' W 003°24'0 0.0
2014-Sep-07 18:29N 56°01' W 003°24'0 0.0
2014-Sep-07 17:32N 56°01' W 003°24'0 0.0
2014-Sep-07 16:32N 56°01' W 003°24'0 0.0
2014-Sep-07 15:32N 56°01' W 003°24'0 0.0
2014-Sep-07 14:32N 56°01' W 003°24'0 0.0
2014-Sep-07 13:32N 56°01' W 003°24'0 0.0
2014-Sep-07 12:32N 56°01' W 003°24'0 0.0
2014-Sep-07 11:29N 56°01' W 003°24'0 0.0
2014-Sep-07 10:32N 56°01' W 003°24'0 0.0
2014-Sep-07 09:32N 56°01' W 003°24'0 0.0
2014-Sep-07 08:32N 56°01' W 003°24'0 0.0
2014-Sep-07 07:32N 56°01' W 003°24'0 0.0
2014-Sep-07 06:32N 56°01' W 003°24'0 0.0
2014-Sep-07 05:32N 56°01' W 003°24'0 0.0
2014-Sep-07 04:32N 56°01' W 003°24'0 0.0
2014-Sep-07 03:32N 56°01' W 003°24'0 0.0
2014-Sep-07 02:32N 56°01' W 003°24'0 0.0
2014-Sep-07 01:32N 56°01' W 003°24'0 0.0
2014-Sep-07 00:29N 56°01' W 003°24'0 0.0
2014-Sep-06 23:32N 56°01' W 003°24'0 0.0
2014-Sep-06 22:32N 56°01' W 003°24'0 0.0
2014-Sep-06 21:32N 56°01' W 003°24'0 0.0
2014-Sep-06 20:32N 56°01' W 003°24'  
Track history (hours):
 
Tides and Currents Weather Stations Pressure Air Temp Water Temp Dewpoint Dewpoint Depression Visibility Wind Speed Wind Dir Waves Ship Positions

Burgtor

Last reported at 2014-Sep-16 19:33 UTC. Time now 2014-Sep-21 04:03 UTC.
Position N 43°40' W 005°21'.

Length 87 m; draft 3.8 m.

Type: Cargo ship. MMSI: 304665000.

Date/timePositionNaut miles runAvg speedWind from/ knotsBaromVisibWave heightAir tempDewpointWater temp
2014-Sep-16 19:33N 43°40' W 005°21'1210.2
2014-Sep-16 18:23N 43°41' W 005°37'  
2014-Sep-10 12:21N 50°36' E 000°17'7 9.1
2014-Sep-10 11:33N 50°38' E 000°28'8 8.1
2014-Sep-10 10:33N 50°41' E 000°40'8 8.2
2014-Sep-10 09:33N 50°46' E 000°50'2610.8
2014-Sep-10 07:09N 51°02' E 001°23'712.5
2014-Sep-10 06:33N 51°07' E 001°32'1111.1
2014-Sep-10 05:33N 51°17' E 001°39'9 9.3
2014-Sep-10 04:33N 51°26' E 001°44'8 8.1
2014-Sep-10 03:33N 51°34' E 001°44'8 7.6
2014-Sep-10 02:33N 51°41' E 001°44'8 7.6
2014-Sep-10 01:33N 51°49' E 001°43'8 8.3
2014-Sep-10 00:33N 51°57' E 001°44'9 9.1
2014-Sep-09 23:33N 52°06' E 001°46'1110.6
2014-Sep-09 22:32N 52°17' E 001°49'1111.4
2014-Sep-09 21:33N 52°28' E 001°51'1212.3
2014-Sep-09 20:33N 52°40' E 001°55'1211.6
2014-Sep-09 19:33N 52°50' E 001°45'1212.2
2014-Sep-09 18:33N 52°59' E 001°32'1110.7
2014-Sep-09 17:33N 53°08' E 001°23'1110.5
2014-Sep-09 16:32N 53°17' E 001°14'33 9.8
2014-Sep-09 13:07N 53°45' E 000°42'5 8.2
2014-Sep-09 12:32N 53°48' E 000°37'10 7.7
2014-Sep-09 11:13N 53°55' E 000°24'5 7.5
2014-Sep-09 10:33N 53°58' E 000°17'7 7.4
2014-Sep-09 09:33N 54°03' E 000°07'7 6.8
2014-Sep-09 08:33N 54°08' W 000°01'7 7.0
2014-Sep-09 07:33N 54°14' W 000°07'9 8.7
2014-Sep-09 06:33N 54°22' W 000°13'10 9.9
2014-Sep-09 05:33N 54°31' W 000°20'1010.4
2014-Sep-09 04:33N 54°40' W 000°28'1110.5
2014-Sep-09 03:33N 54°50' W 000°37'1210.5
2014-Sep-09 02:27N 54°60' W 000°46'1010.5
2014-Sep-09 01:32N 55°08' W 000°55'62 8.7
2014-Sep-08 18:21N 55°56' W 002°04'7 9.0
2014-Sep-08 17:33N 55°60' W 002°16'10 9.5
2014-Sep-08 16:33N 56°04' W 002°31'10 9.7
2014-Sep-08 15:33N 56°07' W 002°48'1010.0
2014-Sep-08 14:33N 56°03' W 003°04'9 9.3
2014-Sep-08 13:33N 56°01' W 003°21'2 1.7
2014-Sep-08 12:33N 56°01' W 003°24'0 0.0
2014-Sep-08 11:33N 56°01' W 003°24'0 0.0
2014-Sep-08 10:33N 56°01' W 003°24'0 0.0
2014-Sep-08 09:33N 56°01' W 003°24'0 0.0
2014-Sep-08 08:33N 56°01' W 003°24'0 0.0
2014-Sep-08 07:33N 56°01' W 003°24'0 0.0
2014-Sep-08 06:33N 56°01' W 003°24'0 0.0
2014-Sep-08 05:32N 56°01' W 003°24'0 0.0
2014-Sep-08 04:32N 56°01' W 003°24'0 0.0
2014-Sep-08 03:32N 56°01' W 003°24'0 0.0
2014-Sep-08 02:32N 56°01' W 003°24'0 0.0
2014-Sep-08 01:32N 56°01' W 003°24'0 0.0
2014-Sep-08 00:32N 56°01' W 003°24'0 0.0
2014-Sep-07 23:32N 56°01' W 003°24'0 0.0
2014-Sep-07 21:32N 56°01' W 003°24'0 0.0
2014-Sep-07 20:32N 56°01' W 003°24'0 0.0
2014-Sep-07 19:32N 56°01' W 003°24'0 0.0
2014-Sep-07 18:29N 56°01' W 003°24'0 0.0
2014-Sep-07 17:32N 56°01' W 003°24'0 0.0
2014-Sep-07 16:32N 56°01' W 003°24'0 0.0
2014-Sep-07 15:32N 56°01' W 003°24'0 0.0
2014-Sep-07 14:32N 56°01' W 003°24'0 0.0
2014-Sep-07 13:32N 56°01' W 003°24'0 0.0
2014-Sep-07 12:32N 56°01' W 003°24'0 0.0
2014-Sep-07 11:29N 56°01' W 003°24'0 0.0
2014-Sep-07 10:32N 56°01' W 003°24'0 0.0
2014-Sep-07 09:32N 56°01' W 003°24'0 0.0
2014-Sep-07 08:32N 56°01' W 003°24'0 0.0
2014-Sep-07 07:32N 56°01' W 003°24'0 0.0
2014-Sep-07 06:32N 56°01' W 003°24'0 0.0
2014-Sep-07 05:32N 56°01' W 003°24'0 0.0
2014-Sep-07 04:32N 56°01' W 003°24'0 0.0
2014-Sep-07 03:32N 56°01' W 003°24'0 0.0
2014-Sep-07 02:32N 56°01' W 003°24'0 0.0
2014-Sep-07 01:32N 56°01' W 003°24'0 0.0
2014-Sep-07 00:29N 56°01' W 003°24'0 0.0
2014-Sep-06 23:32N 56°01' W 003°24'0 0.0
2014-Sep-06 22:32N 56°01' W 003°24'0 0.0
2014-Sep-06 21:32N 56°01' W 003°24'0 0.0
2014-Sep-06 20:32N 56°01' W 003°24'  

Dump ship's entire track history